createdAt,value
2023-03-30T00:00:20.635Z,18.09
2023-03-30T00:02:49.546Z,18.35
2023-03-30T00:05:20.914Z,18.13
2023-03-30T00:07:48.079Z,18.07
2023-03-30T00:10:19.206Z,18.16
2023-03-30T00:12:47.478Z,18.27
2023-03-30T00:15:15.530Z,18.15
2023-03-30T00:17:42.501Z,18.30
2023-03-30T00:20:11.974Z,18.18
2023-03-30T00:22:39.253Z,18.32
2023-03-30T00:25:08.819Z,18.31
2023-03-30T00:27:36.482Z,17.72
2023-03-30T00:30:07.842Z,18.32
2023-03-30T00:32:34.924Z,18.23
2023-03-30T00:35:01.988Z,18.31
2023-03-30T00:37:29.848Z,18.12
2023-03-30T00:39:56.887Z,18.18
2023-03-30T00:42:23.842Z,18.11
2023-03-30T00:45:16.413Z,18.20
2023-03-30T00:47:59.976Z,17.92
2023-03-30T00:50:48.534Z,18.06
2023-03-30T00:53:21.594Z,17.90
2023-03-30T00:55:49.356Z,18.03
2023-03-30T00:58:16.574Z,17.95
2023-03-30T01:00:43.645Z,17.85
2023-03-30T01:03:17.723Z,18.02
2023-03-30T01:05:45.044Z,18.03
2023-03-30T01:08:14.161Z,18.03
2023-03-30T01:10:41.260Z,18.05
2023-03-30T01:13:08.175Z,18.06
2023-03-30T01:15:36.196Z,17.90
2023-03-30T01:18:09.025Z,18.05
2023-03-30T01:21:14.310Z,18.05
2023-03-30T01:24:18.533Z,18.06
2023-03-30T01:26:51.846Z,17.91
2023-03-30T01:29:25.299Z,18.03
2023-03-30T01:32:01.289Z,18.04
2023-03-30T01:34:44.281Z,18.07
2023-03-30T01:37:43.592Z,18.08
2023-03-30T01:40:13.977Z,18.09
2023-03-30T01:42:43.589Z,18.11
2023-03-30T01:45:15.683Z,17.86
2023-03-30T01:48:07.193Z,18.07
2023-03-30T01:50:38.334Z,18.03
2023-03-30T01:53:18.543Z,17.86
2023-03-30T01:56:06.844Z,18.05
2023-03-30T01:58:43.734Z,17.85
2023-03-30T02:01:11.163Z,17.64
2023-03-30T02:03:39.364Z,18.00
2023-03-30T02:06:21.867Z,17.85
2023-03-30T02:08:49.693Z,17.85
2023-03-30T02:11:16.631Z,17.95
2023-03-30T02:13:43.499Z,17.79
2023-03-30T02:16:16.930Z,17.94
2023-03-30T02:18:43.869Z,17.70
2023-03-30T02:21:10.670Z,17.97
2023-03-30T02:23:39.580Z,17.74
2023-03-30T02:26:08.339Z,17.95
2023-03-30T02:28:35.504Z,17.97
2023-03-30T02:31:02.744Z,17.83
2023-03-30T02:33:59.419Z,18.00
2023-03-30T02:36:48.138Z,18.02
2023-03-30T02:39:17.949Z,18.02
2023-03-30T02:42:00.724Z,18.01
2023-03-30T02:44:55.369Z,17.91
2023-03-30T02:47:54.103Z,17.74
2023-03-30T02:50:39.104Z,17.91
2023-03-30T02:53:27.547Z,17.91
2023-03-30T02:56:07.162Z,17.91
2023-03-30T02:58:36.508Z,17.90
2023-03-30T03:01:06.000Z,17.65
2023-03-30T03:03:37.491Z,17.89
2023-03-30T03:06:04.495Z,17.87
2023-03-30T03:08:34.706Z,17.82
2023-03-30T03:11:01.731Z,17.81
2023-03-30T03:13:28.683Z,17.64
2023-03-30T03:15:58.261Z,17.29
2023-03-30T03:18:25.081Z,17.59
2023-03-30T03:20:53.323Z,17.66
2023-03-30T03:23:20.355Z,17.20
2023-03-30T03:25:48.528Z,17.34
2023-03-30T03:28:15.610Z,17.37
2023-03-30T03:30:42.930Z,17.52
2023-03-30T03:33:09.937Z,17.68
2023-03-30T03:35:39.543Z,17.60
2023-03-30T03:38:07.829Z,17.73
2023-03-30T03:40:34.786Z,17.65
2023-03-30T03:43:01.873Z,17.71
2023-03-30T03:45:28.728Z,17.73
2023-03-30T03:47:55.740Z,17.69
2023-03-30T03:50:22.640Z,17.67
2023-03-30T03:52:49.594Z,17.71
2023-03-30T03:55:16.446Z,17.71
2023-03-30T03:57:45.195Z,17.66
2023-03-30T04:00:24.323Z,17.63
2023-03-30T04:02:51.087Z,17.81
2023-03-30T04:05:17.889Z,17.64
2023-03-30T04:07:46.565Z,17.66
2023-03-30T04:10:13.674Z,17.80
2023-03-30T04:12:40.454Z,17.77
2023-03-30T04:15:07.970Z,17.69
2023-03-30T04:17:35.397Z,17.49
2023-03-30T04:20:06.310Z,17.53
2023-03-30T04:22:42.218Z,17.44
2023-03-30T04:25:09.906Z,17.61
2023-03-30T04:27:37.833Z,17.59
2023-03-30T04:30:08.589Z,17.50
2023-03-30T04:32:38.957Z,17.52
2023-03-30T04:35:06.439Z,17.60
2023-03-30T04:37:33.395Z,17.63
2023-03-30T04:40:01.750Z,17.63
2023-03-30T04:42:30.759Z,17.64
2023-03-30T04:44:58.170Z,17.59
2023-03-30T04:47:25.926Z,17.60
2023-03-30T04:49:52.723Z,17.64
2023-03-30T04:52:19.736Z,17.55
2023-03-30T04:54:46.682Z,17.41
2023-03-30T04:57:14.269Z,17.42
2023-03-30T04:59:41.629Z,17.51
2023-03-30T05:02:09.081Z,17.35
2023-03-30T05:04:36.026Z,17.49
2023-03-30T05:07:03.018Z,17.48
2023-03-30T05:09:29.835Z,17.50
2023-03-30T05:11:56.729Z,17.48
2023-03-30T05:14:23.632Z,17.28
2023-03-30T05:16:50.411Z,17.49
2023-03-30T05:19:17.339Z,17.09
2023-03-30T05:21:44.472Z,16.95
2023-03-30T05:24:13.142Z,17.42
2023-03-30T05:26:40.006Z,17.33
2023-03-30T05:29:06.864Z,17.51
2023-03-30T05:31:33.635Z,17.37
2023-03-30T05:34:00.604Z,17.48
2023-03-30T05:36:27.548Z,17.45
2023-03-30T05:38:54.295Z,17.42
2023-03-30T05:41:21.275Z,17.42
2023-03-30T05:43:49.248Z,17.45
2023-03-30T05:46:16.050Z,17.46
2023-03-30T05:48:42.856Z,17.44
2023-03-30T05:51:09.882Z,17.45
2023-03-30T05:53:36.839Z,17.42
2023-03-30T05:56:03.710Z,17.40
2023-03-30T05:58:31.042Z,17.31
2023-03-30T06:00:58.567Z,17.17
2023-03-30T06:03:25.481Z,17.23
2023-03-30T06:05:53.865Z,17.26
2023-03-30T06:08:22.592Z,17.22
2023-03-30T06:10:53.939Z,17.17
2023-03-30T06:13:20.844Z,17.15
2023-03-30T06:15:47.720Z,17.11
2023-03-30T06:18:14.583Z,16.80
2023-03-30T06:20:41.453Z,16.84
2023-03-30T06:23:08.207Z,16.95
2023-03-30T06:25:36.018Z,16.98
2023-03-30T06:28:03.266Z,16.74
2023-03-30T06:30:30.190Z,16.97
2023-03-30T06:32:57.179Z,16.96
2023-03-30T06:35:24.217Z,17.01
2023-03-30T06:37:51.028Z,17.01
2023-03-30T06:40:19.267Z,16.87
2023-03-30T06:42:46.199Z,17.02
2023-03-30T06:45:13.789Z,17.03
2023-03-30T06:47:41.791Z,16.89
2023-03-30T06:50:09.324Z,16.77
2023-03-30T06:52:39.233Z,16.83
2023-03-30T06:55:06.473Z,16.92
2023-03-30T06:57:33.293Z,16.99
2023-03-30T07:00:00.196Z,16.98
2023-03-30T07:02:27.946Z,16.77
2023-03-30T07:04:54.882Z,16.96
2023-03-30T07:07:21.747Z,16.99
2023-03-30T07:09:48.593Z,17.03
2023-03-30T07:12:15.516Z,16.52
2023-03-30T07:14:42.404Z,17.07
2023-03-30T07:17:09.365Z,17.08
2023-03-30T07:19:36.931Z,17.08
2023-03-30T07:22:04.473Z,16.89
2023-03-30T07:24:31.682Z,17.09
2023-03-30T07:26:58.548Z,17.29
2023-03-30T07:29:27.231Z,17.23
2023-03-30T07:31:56.741Z,16.96
2023-03-30T07:34:23.664Z,17.27
2023-03-30T07:36:50.770Z,17.50
2023-03-30T07:39:18.064Z,17.55
2023-03-30T07:41:44.906Z,17.55
2023-03-30T07:44:11.724Z,17.65
2023-03-30T07:46:39.088Z,17.67
2023-03-30T07:49:06.233Z,17.09
2023-03-30T07:51:33.519Z,17.56
2023-03-30T07:54:00.830Z,17.33
2023-03-30T07:56:27.576Z,17.47
2023-03-30T07:58:54.347Z,17.48
2023-03-30T08:01:21.349Z,17.51
2023-03-30T08:03:48.491Z,17.52
2023-03-30T08:06:15.731Z,17.55
2023-03-30T08:08:43.685Z,17.54
2023-03-30T08:11:11.454Z,17.52
2023-03-30T08:13:40.018Z,17.36
2023-03-30T08:16:09.189Z,17.59
2023-03-30T08:18:37.242Z,17.72
2023-03-30T08:21:04.405Z,17.68
2023-03-30T08:23:31.933Z,17.73
2023-03-30T08:25:59.536Z,17.65
2023-03-30T08:28:26.528Z,17.74
2023-03-30T08:30:53.525Z,17.77
2023-03-30T08:33:20.523Z,17.88
2023-03-30T08:35:48.258Z,17.67
2023-03-30T08:38:17.940Z,17.85
2023-03-30T08:40:45.455Z,17.90
2023-03-30T08:43:37.300Z,18.02
2023-03-30T08:46:04.304Z,18.14
2023-03-30T08:48:33.644Z,18.10
2023-03-30T08:51:23.592Z,18.42
2023-03-30T08:53:58.335Z,18.48
2023-03-30T08:56:29.281Z,18.51
2023-03-30T08:59:17.267Z,18.65
2023-03-30T09:01:53.398Z,18.59
2023-03-30T09:04:33.993Z,18.57
2023-03-30T09:07:07.977Z,18.70
2023-03-30T09:09:40.768Z,18.81
2023-03-30T09:12:34.516Z,18.98
2023-03-30T09:15:23.119Z,19.05
2023-03-30T09:18:17.928Z,19.14
2023-03-30T09:20:46.071Z,19.24
2023-03-30T09:23:14.412Z,19.18
2023-03-30T09:26:11.477Z,19.21
2023-03-30T09:29:01.290Z,19.22
2023-03-30T09:31:33.327Z,19.35
2023-03-30T09:34:07.148Z,19.69
2023-03-30T09:36:40.065Z,19.88
2023-03-30T09:39:13.638Z,19.80
2023-03-30T09:42:13.139Z,20.14
2023-03-30T09:44:48.051Z,20.06
2023-03-30T09:47:21.144Z,20.08
2023-03-30T09:49:47.969Z,20.14
2023-03-30T09:52:22.638Z,20.12
2023-03-30T09:54:49.457Z,20.55
2023-03-30T09:57:36.540Z,20.98
2023-03-30T10:00:04.999Z,20.69
2023-03-30T10:02:34.045Z,21.10
2023-03-30T10:05:02.640Z,21.40
2023-03-30T10:07:37.907Z,21.26
2023-03-30T10:10:13.961Z,21.32
2023-03-30T10:12:40.908Z,21.34
2023-03-30T10:15:14.774Z,21.61
2023-03-30T10:17:41.578Z,21.98
2023-03-30T10:20:27.101Z,22.15
2023-03-30T10:23:01.790Z,22.54
2023-03-30T10:25:29.797Z,22.51
2023-03-30T10:27:58.321Z,22.44
2023-03-30T10:30:27.249Z,22.52
2023-03-30T10:32:55.134Z,22.57
2023-03-30T10:35:26.497Z,22.50
2023-03-30T10:37:54.830Z,22.24
2023-03-30T10:40:32.746Z,22.08
2023-03-30T10:43:00.831Z,21.95
2023-03-30T10:45:33.093Z,22.01
2023-03-30T10:48:03.005Z,22.18
2023-03-30T10:50:50.826Z,22.22
2023-03-30T10:53:30.103Z,22.36
2023-03-30T10:56:06.213Z,22.22
2023-03-30T10:59:27.248Z,22.03
2023-03-30T11:02:17.855Z,21.93
2023-03-30T11:05:06.674Z,22.00
2023-03-30T11:07:49.624Z,22.01
2023-03-30T11:10:21.531Z,22.00
2023-03-30T11:12:55.209Z,21.91
2023-03-30T11:15:27.530Z,21.91
2023-03-30T11:17:59.793Z,21.60
2023-03-30T11:20:29.360Z,21.64
2023-03-30T11:25:27.837Z,21.56
2023-03-30T11:28:04.263Z,21.48
2023-03-30T11:30:31.835Z,21.66
2023-03-30T11:33:32.764Z,21.82
2023-03-30T11:36:17.751Z,21.61
2023-03-30T11:38:59.331Z,21.82
2023-03-30T11:41:36.706Z,21.77
2023-03-30T11:44:03.969Z,21.53
2023-03-30T11:46:39.883Z,21.18
2023-03-30T11:49:13.556Z,21.25
2023-03-30T11:51:49.718Z,21.02
2023-03-30T11:54:28.721Z,20.78
2023-03-30T11:57:11.277Z,20.61
2023-03-30T11:59:57.542Z,20.44
2023-03-30T12:02:39.619Z,20.39
2023-03-30T12:05:28.504Z,20.34
2023-03-30T12:08:07.220Z,20.34
2023-03-30T12:10:41.671Z,20.27
2023-03-30T12:13:15.797Z,20.15
2023-03-30T12:15:46.146Z,20.19
2023-03-30T12:18:33.377Z,20.18
2023-03-30T12:21:12.255Z,20.05
2023-03-30T12:23:54.654Z,19.92
2023-03-30T12:26:25.804Z,19.71
2023-03-30T12:29:48.150Z,19.94
2023-03-30T12:31:59.472Z,19.98
2023-03-30T12:34:27.762Z,19.98
2023-03-30T12:37:14.840Z,19.98
2023-03-30T12:39:55.234Z,19.96
2023-03-30T12:42:34.454Z,19.97
2023-03-30T12:45:12.125Z,20.05
2023-03-30T12:48:05.332Z,20.48
2023-03-30T12:50:52.384Z,20.66
2023-03-30T12:53:37.774Z,20.73
2023-03-30T12:56:07.740Z,20.81
2023-03-30T12:59:00.360Z,20.76
2023-03-30T13:01:39.850Z,20.64
2023-03-30T13:04:09.334Z,20.46
2023-03-30T13:06:37.683Z,20.48
2023-03-30T13:09:16.629Z,20.43
2023-03-30T13:12:06.456Z,20.50
2023-03-30T13:14:36.069Z,20.62
2023-03-30T13:17:06.563Z,20.61
2023-03-30T13:19:33.455Z,20.52
2023-03-30T13:22:12.477Z,20.34
2023-03-30T13:24:41.180Z,20.23
2023-03-30T13:27:14.217Z,20.12
2023-03-30T13:29:41.780Z,20.06
2023-03-30T13:32:38.505Z,19.99
2023-03-30T13:35:33.233Z,19.94
2023-03-30T13:38:12.398Z,19.81
2023-03-30T13:41:23.536Z,19.78
2023-03-30T13:44:03.856Z,19.81
2023-03-30T13:46:50.469Z,19.80
2023-03-30T13:49:26.357Z,19.92
2023-03-30T13:51:53.366Z,19.73
2023-03-30T13:54:24.433Z,19.70
2023-03-30T13:57:03.840Z,19.65
2023-03-30T13:59:32.040Z,19.76
2023-03-30T14:02:00.175Z,19.55
2023-03-30T14:04:32.373Z,19.59
2023-03-30T14:07:14.469Z,19.65
2023-03-30T14:09:41.544Z,19.61
2023-03-30T14:12:08.482Z,19.37
2023-03-30T14:14:42.066Z,19.59
2023-03-30T14:17:22.443Z,19.61
2023-03-30T14:20:07.113Z,19.35
2023-03-30T14:22:37.287Z,19.20
2023-03-30T14:25:05.586Z,19.50
2023-03-30T14:27:33.701Z,19.49
2023-03-30T14:30:00.680Z,19.45
2023-03-30T14:32:27.618Z,19.47
2023-03-30T14:34:54.673Z,19.49
2023-03-30T14:37:23.179Z,19.49
2023-03-30T14:39:56.300Z,19.45
2023-03-30T14:42:27.681Z,19.45
2023-03-30T14:44:56.441Z,19.23
2023-03-30T14:47:24.576Z,19.39
2023-03-30T14:49:52.291Z,19.42
2023-03-30T14:52:24.451Z,19.39
2023-03-30T14:55:05.159Z,19.35
2023-03-30T14:57:38.367Z,19.29
2023-03-30T15:00:22.755Z,19.33
2023-03-30T15:03:02.567Z,19.28
2023-03-30T15:05:40.657Z,19.23
2023-03-30T15:08:11.847Z,19.19
2023-03-30T15:11:08.928Z,19.20
2023-03-30T15:13:37.642Z,19.03
2023-03-30T15:16:04.878Z,19.21
2023-03-30T15:18:31.736Z,19.29
2023-03-30T15:20:58.541Z,19.15
2023-03-30T15:23:25.472Z,19.35
2023-03-30T15:25:52.460Z,19.31
2023-03-30T15:28:20.760Z,19.13
2023-03-30T15:30:50.882Z,19.23
2023-03-30T15:33:31.272Z,18.98
2023-03-30T15:36:02.002Z,19.17
2023-03-30T15:38:34.411Z,19.06
2023-03-30T15:41:02.510Z,19.11
2023-03-30T15:43:33.575Z,18.93
2023-03-30T15:46:13.744Z,18.99
2023-03-30T15:48:45.593Z,19.03
2023-03-30T15:51:16.783Z,19.13
2023-03-30T15:53:49.572Z,19.22
2023-03-30T15:56:25.518Z,18.96
2023-03-30T15:58:52.314Z,18.93
2023-03-30T16:01:19.209Z,19.09
2023-03-30T16:03:55.515Z,19.04
2023-03-30T16:06:23.099Z,18.81
2023-03-30T16:08:50.111Z,19.06
2023-03-30T16:11:18.679Z,19.09
2023-03-30T16:13:46.707Z,19.10
2023-03-30T16:16:14.514Z,19.11
2023-03-30T16:18:42.721Z,19.00
2023-03-30T16:21:11.098Z,19.01
2023-03-30T16:23:38.504Z,18.98
2023-03-30T16:26:06.228Z,18.66
2023-03-30T16:28:33.149Z,18.93
2023-03-30T16:31:01.520Z,18.86
2023-03-30T16:33:28.269Z,18.83
2023-03-30T16:35:55.107Z,18.75
2023-03-30T16:38:22.019Z,18.55
2023-03-30T16:40:53.210Z,18.36
2023-03-30T16:43:20.078Z,18.53
2023-03-30T16:45:47.060Z,18.45
2023-03-30T16:48:15.130Z,18.46
2023-03-30T16:50:43.500Z,18.48
2023-03-30T16:53:10.444Z,18.27
2023-03-30T16:55:37.838Z,18.45
2023-03-30T16:58:05.294Z,18.42
2023-03-30T17:00:33.948Z,18.45
2023-03-30T17:03:00.864Z,18.46
2023-03-30T17:05:27.730Z,17.99
2023-03-30T17:07:54.866Z,18.38
2023-03-30T17:10:29.104Z,18.27
2023-03-30T17:12:56.415Z,18.29
2023-03-30T17:15:24.921Z,18.30
2023-03-30T17:17:52.312Z,18.33
2023-03-30T17:20:23.601Z,18.16
2023-03-30T17:22:50.938Z,18.14
2023-03-30T17:25:20.822Z,17.88
2023-03-30T17:27:48.988Z,17.99
2023-03-30T17:30:18.459Z,17.71
2023-03-30T17:32:45.367Z,17.79
2023-03-30T17:35:12.269Z,17.95
2023-03-30T17:37:39.563Z,17.88
2023-03-30T17:40:23.471Z,17.63
2023-03-30T17:42:50.811Z,17.77
2023-03-30T17:45:18.978Z,17.81
2023-03-30T17:47:45.879Z,17.45
2023-03-30T17:50:24.594Z,17.58
2023-03-30T17:52:51.706Z,17.50
2023-03-30T17:55:19.310Z,17.74
2023-03-30T17:57:46.258Z,17.74
2023-03-30T18:00:17.385Z,17.47
2023-03-30T18:02:44.182Z,17.68
2023-03-30T18:05:11.527Z,17.17
2023-03-30T18:07:38.459Z,17.63
2023-03-30T18:10:17.716Z,17.66
2023-03-30T18:12:44.516Z,17.62
2023-03-30T18:15:11.559Z,17.64
2023-03-30T18:17:38.636Z,17.61
2023-03-30T18:20:34.176Z,17.58
2023-03-30T18:23:01.244Z,17.49
2023-03-30T18:25:32.470Z,17.09
2023-03-30T18:28:00.548Z,17.24
2023-03-30T18:30:31.968Z,17.43
2023-03-30T18:32:58.994Z,17.42
2023-03-30T18:35:27.719Z,17.35
2023-03-30T18:37:54.909Z,17.37
2023-03-30T18:40:26.813Z,17.29
2023-03-30T18:42:53.708Z,17.24
2023-03-30T18:45:27.382Z,17.38
2023-03-30T18:47:55.064Z,17.35
2023-03-30T18:50:44.926Z,17.31
2023-03-30T18:53:13.446Z,17.29
2023-03-30T18:55:42.078Z,17.27
2023-03-30T18:58:28.410Z,17.26
2023-03-30T19:00:55.739Z,17.03
2023-03-30T19:03:22.993Z,17.22
2023-03-30T19:05:50.539Z,17.22
2023-03-30T19:08:19.021Z,17.10
2023-03-30T19:10:46.345Z,17.16
2023-03-30T19:13:14.238Z,16.65
2023-03-30T19:15:41.343Z,17.14
2023-03-30T19:18:08.542Z,17.13
2023-03-30T19:20:37.976Z,16.89
2023-03-30T19:23:04.791Z,17.17
2023-03-30T19:25:31.569Z,17.18
2023-03-30T19:28:03.577Z,17.19
2023-03-30T19:30:32.878Z,17.01
2023-03-30T19:33:02.184Z,17.19
2023-03-30T19:35:29.159Z,17.08
2023-03-30T19:37:56.206Z,16.86
2023-03-30T19:40:23.142Z,17.09
2023-03-30T19:42:50.371Z,17.09
2023-03-30T19:45:18.835Z,16.95
2023-03-30T19:47:45.791Z,17.19
2023-03-30T19:50:18.190Z,17.19
2023-03-30T19:52:48.740Z,17.09
2023-03-30T19:55:15.886Z,17.18
2023-03-30T19:57:42.688Z,17.19
2023-03-30T20:00:13.099Z,17.13
2023-03-30T20:02:41.280Z,17.20
2023-03-30T20:05:10.327Z,17.20
2023-03-30T20:07:37.549Z,17.17
2023-03-30T20:10:05.513Z,16.56
2023-03-30T20:12:32.403Z,17.07
2023-03-30T20:15:00.173Z,17.10
2023-03-30T20:17:30.075Z,17.16
2023-03-30T20:19:58.221Z,17.19
2023-03-30T20:22:25.708Z,16.99
2023-03-30T20:24:52.438Z,17.19
2023-03-30T20:27:19.344Z,17.21
2023-03-30T20:29:46.268Z,17.18
2023-03-30T20:32:13.077Z,17.15
2023-03-30T20:34:40.363Z,16.40
2023-03-30T20:37:07.202Z,17.15
2023-03-30T20:39:34.357Z,17.16
2023-03-30T20:42:02.112Z,16.95
2023-03-30T20:44:31.973Z,17.07
2023-03-30T20:46:58.783Z,17.13
2023-03-30T20:49:25.990Z,17.15
2023-03-30T20:51:53.426Z,17.15
2023-03-30T20:54:20.804Z,17.06
2023-03-30T20:56:47.764Z,17.05
2023-03-30T20:59:14.678Z,16.83
2023-03-30T21:01:41.547Z,16.97
2023-03-30T21:04:08.443Z,16.41
2023-03-30T21:06:35.424Z,16.70
2023-03-30T21:09:04.096Z,16.92
2023-03-30T21:11:33.584Z,16.96
2023-03-30T21:14:01.689Z,16.45
2023-03-30T21:16:28.645Z,16.88
2023-03-30T21:18:55.562Z,16.86
2023-03-30T21:21:22.489Z,16.63
2023-03-30T21:23:49.350Z,16.67
2023-03-30T21:26:18.642Z,16.74
2023-03-30T21:28:45.688Z,16.53
2023-03-30T21:31:14.390Z,16.70
2023-03-30T21:33:41.474Z,16.53
2023-03-30T21:36:09.050Z,16.70
2023-03-30T21:38:36.476Z,16.38
2023-03-30T21:41:14.080Z,16.57
2023-03-30T21:43:44.138Z,16.48
2023-03-30T21:46:13.476Z,16.53
2023-03-30T21:48:41.602Z,15.94
2023-03-30T21:51:09.282Z,16.58
2023-03-30T21:53:36.401Z,16.56
2023-03-30T21:56:03.494Z,16.45
2023-03-30T21:58:30.349Z,16.29
2023-03-30T22:01:08.875Z,16.47
2023-03-30T22:03:38.686Z,16.48
2023-03-30T22:06:07.094Z,16.53
2023-03-30T22:08:34.239Z,16.52
2023-03-30T22:11:12.803Z,16.52
2023-03-30T22:13:39.723Z,15.96
2023-03-30T22:16:12.925Z,16.49
2023-03-30T22:18:40.349Z,16.34
2023-03-30T22:21:08.658Z,16.49
2023-03-30T22:23:35.691Z,16.47
2023-03-30T22:26:02.476Z,16.05
2023-03-30T22:28:29.837Z,16.27
2023-03-30T22:30:56.668Z,16.41
2023-03-30T22:33:23.432Z,15.79
2023-03-30T22:35:50.197Z,16.45
2023-03-30T22:38:17.051Z,16.18
2023-03-30T22:40:43.831Z,16.23
2023-03-30T22:43:11.447Z,16.47
2023-03-30T22:45:38.699Z,16.27
2023-03-30T22:48:06.084Z,16.49
2023-03-30T22:50:34.102Z,16.49
2023-03-30T22:53:01.076Z,16.49
2023-03-30T22:55:28.821Z,16.24
2023-03-30T22:57:57.072Z,16.48
2023-03-30T23:00:23.911Z,16.50
2023-03-30T23:02:51.542Z,16.50
2023-03-30T23:05:21.444Z,16.54
2023-03-30T23:07:49.144Z,16.60
2023-03-30T23:10:18.420Z,16.56
2023-03-30T23:12:45.764Z,16.34
2023-03-30T23:15:12.726Z,16.47
2023-03-30T23:17:39.823Z,16.55
2023-03-30T23:20:08.349Z,16.25
2023-03-30T23:22:35.289Z,16.62
2023-03-30T23:25:02.017Z,16.63
2023-03-30T23:27:28.755Z,16.63
2023-03-30T23:29:55.919Z,16.59
2023-03-30T23:32:22.642Z,16.41
2023-03-30T23:34:49.377Z,16.66
2023-03-30T23:37:17.766Z,16.67
2023-03-30T23:39:44.618Z,16.65
2023-03-30T23:42:11.846Z,16.51
2023-03-30T23:44:38.704Z,16.60
2023-03-30T23:47:05.494Z,16.63
2023-03-30T23:49:32.194Z,16.45
2023-03-30T23:51:59.090Z,16.66
2023-03-30T23:54:25.905Z,16.48
2023-03-30T23:56:57.367Z,16.71
2023-03-30T23:59:24.778Z,16.75
